Time;durP1;ratioP1;P1;durP2;ratioP2;P2;SDS_P1;SDS_P2;PMS_P1;PMS_P2;Temp;Humidity;BMP_temperature;BMP_pressure;BME280_temperature;BME280_humidity;BME280_pressure;Samples;Min_cycle;Max_cycle;Signal;HPM_P1;HPM_P2
2023/11/30 00:03:01;;;;;;;41.00;27.40;;;;;;;-5.92;100.00;98338.09;435990;1253;140882;-70
2023/11/30 00:13:08;;;;;;;32.10;19.40;;;;;;;-5.80;100.00;98328.67;436244;1253;140748;-72
2023/11/30 00:23:14;;;;;;;30.60;20.40;;;;;;;-5.54;100.00;98325.48;436727;1251;141391;-72
2023/11/30 00:33:20;;;;;;;28.80;20.00;;;;;;;-5.31;100.00;98321.45;437083;1251;140478;-73
2023/11/30 00:43:26;;;;;;;29.10;19.80;;;;;;;-5.11;100.00;98319.34;436873;1253;140728;-72
2023/11/30 00:53:33;;;;;;;30.70;20.80;;;;;;;-4.90;100.00;98319.23;436637;1253;139763;-74
2023/11/30 01:03:39;;;;;;;30.00;19.40;;;;;;;-4.74;100.00;98322.48;436116;1251;141097;-72
2023/11/30 01:13:46;;;;;;;23.10;15.40;;;;;;;-4.63;100.00;98320.18;436912;1251;141827;-73
2023/11/30 01:23:52;;;;;;;24.20;17.50;;;;;;;-4.50;100.00;98318.20;436497;1251;140790;-72
2023/11/30 01:33:59;;;;;;;21.80;17.20;;;;;;;-4.41;100.00;98321.91;435838;1251;140257;-72
2023/11/30 01:44:06;;;;;;;23.00;16.90;;;;;;;-4.32;100.00;98325.46;436634;1254;140356;-72
2023/11/30 01:54:12;;;;;;;24.60;17.40;;;;;;;-4.22;100.00;98320.96;436082;1251;139826;-72
2023/11/30 02:04:19;;;;;;;22.30;17.20;;;;;;;-4.16;100.00;98316.88;436150;1250;139907;-72
2023/11/30 02:14:26;;;;;;;21.60;17.50;;;;;;;-4.13;100.00;98307.23;436772;1252;140776;-72
2023/11/30 02:24:32;;;;;;;21.50;15.80;;;;;;;-4.08;100.00;98308.13;436006;1251;140650;-72
2023/11/30 02:34:39;;;;;;;24.80;17.70;;;;;;;-4.03;100.00;98307.84;436333;1251;139779;-73
2023/11/30 02:44:45;;;;;;;20.10;17.00;;;;;;;-4.02;100.00;98307.98;435652;1251;140275;-72
2023/11/30 02:54:51;;;;;;;22.20;16.90;;;;;;;-3.97;100.00;98309.73;436270;1250;139960;-72
2023/11/30 03:04:57;;;;;;;19.20;15.30;;;;;;;-3.95;100.00;98303.35;435875;1253;141245;-72
2023/11/30 03:15:05;;;;;;;20.40;15.40;;;;;;;-4.02;100.00;98300.11;436019;1252;140300;-72
2023/11/30 03:25:12;;;;;;;22.40;16.40;;;;;;;-4.30;100.00;98290.55;436534;1250;140542;-72
2023/11/30 03:35:18;;;;;;;18.70;14.20;;;;;;;-4.42;100.00;98286.39;436403;1251;141323;-72
2023/11/30 03:45:25;;;;;;;20.00;14.90;;;;;;;-4.43;100.00;98286.25;436594;1253;140580;-71
2023/11/30 03:55:32;;;;;;;23.20;15.00;;;;;;;-4.46;100.00;98286.15;436609;1253;141062;-72
2023/11/30 04:05:38;;;;;;;15.50;13.00;;;;;;;-4.45;100.00;98295.71;436931;1252;141947;-71
2023/11/30 04:15:44;;;;;;;21.40;14.50;;;;;;;-4.25;100.00;98292.48;435929;1253;140138;-72
2023/11/30 04:25:51;;;;;;;19.70;15.40;;;;;;;-4.00;100.00;98289.98;436558;1253;140676;-72
2023/11/30 04:35:57;;;;;;;19.60;15.70;;;;;;;-3.81;100.00;98286.94;436007;1251;139768;-73
2023/11/30 04:46:04;;;;;;;19.30;16.50;;;;;;;-3.65;100.00;98286.33;436249;1253;140276;-73
2023/11/30 04:56:12;;;;;;;22.80;16.80;;;;;;;-3.56;100.00;98281.48;437392;1251;140705;-72
2023/11/30 05:06:18;;;;;;;20.80;16.50;;;;;;;-3.50;100.00;98280.63;437020;1253;140066;-72
2023/11/30 05:16:25;;;;;;;18.60;15.30;;;;;;;-3.50;100.00;98276.70;437045;1251;141145;-72
2023/11/30 05:26:31;;;;;;;18.40;15.10;;;;;;;-3.42;100.00;98277.67;436790;1253;140100;-72
2023/11/30 05:36:38;;;;;;;25.10;20.20;;;;;;;-3.36;100.00;98278.34;436520;1249;141274;-70
2023/11/30 05:46:45;;;;;;;22.80;17.90;;;;;;;-3.30;100.00;98279.05;436665;1253;142643;-71
2023/11/30 05:56:52;;;;;;;24.40;18.10;;;;;;;-3.24;100.00;98282.29;436577;1253;140246;-71
2023/11/30 06:06:58;;;;;;;27.60;21.10;;;;;;;-3.18;100.00;98288.30;437087;1249;141631;-72
2023/11/30 06:17:05;;;;;;;25.00;20.10;;;;;;;-3.13;100.00;98294.47;437087;1249;140825;-72
2023/11/30 06:27:11;;;;;;;21.20;18.30;;;;;;;-3.08;100.00;98296.39;436572;1248;140396;-71
2023/11/30 06:37:18;;;;;;;27.70;21.80;;;;;;;-3.06;100.00;98304.56;436967;1253;140550;-71
2023/11/30 06:47:24;;;;;;;26.40;20.10;;;;;;;-3.12;100.00;98314.11;436964;1253;139755;-72
2023/11/30 06:57:30;;;;;;;26.40;21.00;;;;;;;-3.05;100.00;98320.09;436904;1253;140048;-72
2023/11/30 07:07:37;;;;;;;32.60;23.00;;;;;;;-2.88;100.00;98334.34;435390;1251;142033;-72
2023/11/30 07:17:43;;;;;;;33.30;23.70;;;;;;;-2.72;100.00;98344.66;435335;1254;140090;-72
2023/11/30 07:27:50;;;;;;;27.40;21.40;;;;;;;-2.56;100.00;98347.44;435145;1250;141235;-70
2023/11/30 07:37:56;;;;;;;34.30;27.60;;;;;;;-2.41;100.00;98356.41;435532;1249;140422;-63
2023/11/30 07:48:03;;;;;;;;;;;;;;;-2.26;100.00;98361.62;435352;1250;140049;-68
2023/11/30 07:58:09;;;;;;;23.70;18.40;;;;;;;-2.13;100.00;98366.54;435149;1250;126007;-73
2023/11/30 08:08:16;;;;;;;26.10;20.40;;;;;;;-1.99;100.00;98364.89;439731;1251;140246;-73
2023/11/30 08:18:24;;;;;;;26.40;20.40;;;;;;;-1.76;100.00;98357.79;440460;1249;139634;-69
2023/11/30 08:28:31;;;;;;;23.10;16.10;;;;;;;-1.49;100.00;98350.34;435471;1250;139599;-70
2023/11/30 08:38:38;;;;;;;24.90;19.40;;;;;;;-1.29;100.00;98344.86;435867;1250;141349;-70
2023/11/30 08:48:45;;;;;;;20.70;16.40;;;;;;;-1.14;100.00;98352.21;435145;1253;141178;-73
2023/11/30 08:58:52;;;;;;;22.00;16.70;;;;;;;-0.81;100.00;98348.96;437655;1250;141649;-71
2023/11/30 09:08:59;;;;;;;20.70;17.00;;;;;;;-0.22;100.00;98345.32;440749;1250;140731;-70
2023/11/30 09:19:06;;;;;;;16.30;14.10;;;;;;;0.44;100.00;98347.48;438994;1250;140352;-68
2023/11/30 09:29:10;;;;;;;;;;;;;;;0.28;100.00;98347.96;438900;1253;139844;-72
2023/11/30 09:39:19;;;;;;;22.20;17.20;;;;;;;0.15;100.00;98341.98;437879;1253;125712;-68
2023/11/30 09:49:26;;;;;;;19.00;16.20;;;;;;;0.36;100.00;98327.13;440166;1251;140368;-69
2023/11/30 09:59:32;;;;;;;14.50;12.80;;;;;;;0.90;100.00;98315.52;441619;1249;139803;-74
2023/11/30 10:09:39;;;;;;;17.80;15.00;;;;;;;0.82;100.00;98314.64;435331;1254;139969;-64
2023/11/30 10:19:45;;;;;;;17.70;15.00;;;;;;;0.54;100.00;98318.13;434869;1253;139765;-64
2023/11/30 10:29:57;;;;;;;15.80;12.10;;;;;;;0.64;100.00;98316.47;436696;1250;141245;-70
2023/11/30 10:40:09;;;;;;;18.10;13.80;;;;;;;0.58;100.00;98311.77;434895;1251;139673;-70
2023/11/30 10:50:18;;;;;;;15.10;12.60;;;;;;;0.50;100.00;98302.63;438528;1252;140233;-68
2023/11/30 11:00:25;;;;;;;18.20;13.50;;;;;;;0.50;100.00;98298.64;435330;1253;140270;-74
2023/11/30 11:10:38;;;;;;;19.00;14.00;;;;;;;0.38;100.00;98301.07;437601;1254;141373;-69
2023/11/30 11:20:45;;;;;;;20.90;14.60;;;;;;;0.22;100.00;98291.42;444022;1253;140877;-71
2023/11/30 11:30:52;;;;;;;17.30;13.10;;;;;;;0.20;100.00;98288.23;437022;1253;139933;-65
2023/11/30 11:40:59;;;;;;;14.00;11.80;;;;;;;0.04;100.00;98287.67;436788;1254;139954;-62
2023/11/30 11:51:06;;;;;;;15.80;13.10;;;;;;;-0.08;100.00;98285.60;437118;1253;171732;-61
2023/11/30 12:01:13;;;;;;;17.10;12.90;;;;;;;-0.03;100.00;98278.52;435031;1253;140555;-62
2023/11/30 12:11:21;;;;;;;16.70;14.10;;;;;;;0.08;100.00;98276.69;434907;1250;139687;-62
2023/11/30 12:21:27;;;;;;;19.40;14.40;;;;;;;0.18;100.00;98275.06;439375;1251;143396;-61
2023/11/30 12:31:33;;;;;;;19.60;15.70;;;;;;;0.06;100.00;98274.16;436243;1253;139918;-63
2023/11/30 12:41:40;;;;;;;27.50;20.20;;;;;;;0.01;100.00;98269.08;435067;1251;139850;-65
2023/11/30 12:51:46;;;;;;;26.30;18.10;;;;;;;0.11;100.00;98253.33;436666;1254;140174;-65
2023/11/30 13:01:52;;;;;;;29.20;22.00;;;;;;;0.20;100.00;98245.88;436202;1252;140183;-65
2023/11/30 13:12:01;;;;;;;29.00;21.90;;;;;;;0.35;100.00;98232.67;434995;1250;140262;-66
2023/11/30 13:22:08;;;;;;;30.60;25.40;;;;;;;0.35;100.00;98229.25;435741;1253;139937;-68
2023/11/30 13:32:14;;;;;;;33.90;26.90;;;;;;;0.42;100.00;98220.66;435440;1254;139388;-68
2023/11/30 13:42:20;;;;;;;33.30;24.10;;;;;;;0.43;100.00;98209.80;435117;1254;139389;-69
2023/11/30 13:52:27;;;;;;;35.80;26.20;;;;;;;0.16;100.00;98212.67;439316;1253;140041;-69
2023/11/30 14:02:31;;;;;;;;;;;;;;;0.00;100.00;98216.63;437860;1249;139907;-66
2023/11/30 14:12:38;;;;;;;34.20;25.10;;;;;;;-0.25;100.00;98224.20;437303;1253;126098;-65
2023/11/30 14:22:45;;;;;;;40.00;28.70;;;;;;;-0.52;100.00;98219.77;440855;1250;139517;-66
2023/11/30 14:32:52;;;;;;;40.20;29.90;;;;;;;-0.75;100.00;98213.33;441253;1251;140569;-67
2023/11/30 14:42:58;;;;;;;37.20;29.40;;;;;;;-1.11;100.00;98220.70;435074;1251;140088;-66
2023/11/30 14:53:05;;;;;;;49.80;35.20;;;;;;;-1.56;100.00;98216.55;435487;1253;139804;-70
2023/11/30 15:03:10;;;;;;;;;;;;;;;-2.07;100.00;98200.84;440212;1254;140505;-70
2023/11/30 15:13:19;;;;;;;56.90;43.50;;;;;;;-2.43;100.00;98195.20;439976;1251;127339;-66
2023/11/30 15:23:26;;;;;;;57.90;42.10;;;;;;;-2.72;100.00;98194.95;439099;1253;139445;-67
2023/11/30 15:33:32;;;;;;;54.80;41.30;;;;;;;-3.02;100.00;98210.44;434526;1254;139865;-69
2023/11/30 15:43:39;;;;;;;61.50;48.40;;;;;;;-3.29;100.00;98221.84;438044;1253;140285;-72
2023/11/30 15:53:45;;;;;;;120.40;87.40;;;;;;;-3.19;100.00;98224.80;440790;1253;140610;-73
2023/11/30 16:03:55;;;;;;;113.70;87.50;;;;;;;-2.88;100.00;98230.56;438999;1253;140640;-66
2023/11/30 16:14:02;;;;;;;100.80;77.20;;;;;;;-2.63;100.00;98220.17;435838;1253;140788;-66
2023/11/30 16:24:08;;;;;;;150.80;111.90;;;;;;;-2.46;100.00;98225.29;437397;1249;141215;-66
2023/11/30 16:34:18;;;;;;;111.90;89.00;;;;;;;-2.30;100.00;98217.40;436958;1253;140600;-66
2023/11/30 16:44:24;;;;;;;107.30;80.50;;;;;;;-2.16;100.00;98206.14;434983;1254;140551;-66
2023/11/30 16:54:31;;;;;;;116.60;89.10;;;;;;;-2.12;100.00;98203.09;435198;1256;140433;-64
2023/11/30 17:04:38;;;;;;;108.50;78.10;;;;;;;-2.05;100.00;98202.00;435797;1251;139748;-65
2023/11/30 17:14:44;;;;;;;88.10;60.30;;;;;;;-2.05;100.00;98198.19;435629;1253;141712;-66
2023/11/30 17:24:51;;;;;;;73.40;54.20;;;;;;;-2.01;100.00;98196.52;435661;1251;140387;-66
2023/11/30 17:35:00;;;;;;;101.10;68.00;;;;;;;-1.96;100.00;98202.70;436786;1252;140071;-65
2023/11/30 17:45:10;;;;;;;94.30;65.70;;;;;;;-1.95;100.00;98199.92;436377;1254;140645;-67
2023/11/30 17:55:16;;;;;;;98.10;68.10;;;;;;;-1.97;100.00;98204.60;435936;1251;139658;-66
2023/11/30 18:05:23;;;;;;;97.90;65.90;;;;;;;-1.98;100.00;98202.25;436693;1254;141053;-67
2023/11/30 18:15:29;;;;;;;97.60;67.50;;;;;;;-2.02;100.00;98208.04;437329;1253;141503;-67
2023/11/30 18:25:34;;;;;;;;;;;;;;;-2.08;100.00;98201.21;435369;1254;139925;-66
2023/11/30 18:35:40;;;;;;;98.60;75.90;;;;;;;-2.24;100.00;98190.80;435705;1253;125691;-65
2023/11/30 18:45:46;;;;;;;101.70;69.30;;;;;;;-2.45;100.00;98189.46;436798;1253;141197;-67
2023/11/30 18:55:53;;;;;;;98.50;71.10;;;;;;;-2.80;100.00;98180.81;434596;1251;140964;-67
2023/11/30 19:05:59;;;;;;;84.10;61.20;;;;;;;-3.05;100.00;98166.17;435411;1253;140299;-74
2023/11/30 19:16:06;;;;;;;95.50;68.20;;;;;;;-3.28;100.00;98165.86;440179;1253;139812;-70
2023/11/30 19:26:12;;;;;;;101.10;70.50;;;;;;;-3.55;100.00;98153.31;437007;1251;140728;-70
2023/11/30 19:36:19;;;;;;;95.10;69.00;;;;;;;-3.68;100.00;98145.16;440887;1254;140065;-71
2023/11/30 19:46:26;;;;;;;103.20;76.70;;;;;;;-3.45;100.00;98135.08;440834;1250;144525;-69
2023/11/30 19:56:33;;;;;;;129.40;100.40;;;;;;;-3.22;100.00;98134.69;437558;1251;140974;-70
2023/11/30 20:06:40;;;;;;;125.90;94.80;;;;;;;-3.03;100.00;98152.75;443543;1251;141021;-70
2023/11/30 20:16:46;;;;;;;128.10;95.00;;;;;;;-2.85;100.00;98163.33;436933;1253;141368;-69
2023/11/30 20:26:52;;;;;;;137.90;99.50;;;;;;;-2.70;100.00;98165.94;439535;1250;141634;-70
2023/11/30 20:36:59;;;;;;;127.00;95.00;;;;;;;-2.60;100.00;98154.29;440952;1251;140673;-69
2023/11/30 20:47:06;;;;;;;143.40;101.30;;;;;;;-2.53;100.00;98136.77;440213;1254;141720;-69
2023/11/30 20:57:15;;;;;;;134.30;97.30;;;;;;;-2.50;100.00;98132.73;440050;1251;140881;-70
2023/11/30 21:07:21;;;;;;;124.70;90.50;;;;;;;-2.47;100.00;98127.65;440663;1251;140868;-71
2023/11/30 21:17:27;;;;;;;119.70;86.30;;;;;;;-2.42;100.00;98130.55;440103;1251;139919;-69
2023/11/30 21:27:35;;;;;;;128.20;98.00;;;;;;;-2.40;100.00;98129.11;440161;1251;141934;-70
2023/11/30 21:37:42;;;;;;;123.70;89.60;;;;;;;-2.56;100.00;98131.69;439551;1251;140903;-69
2023/11/30 21:47:50;;;;;;;131.50;95.60;;;;;;;-2.93;100.00;98133.60;436805;1252;140744;-70
2023/11/30 21:57:56;;;;;;;154.90;113.80;;;;;;;-3.36;100.00;98144.53;436971;1251;141304;-70
2023/11/30 22:08:03;;;;;;;171.40;122.20;;;;;;;-3.74;100.00;98153.87;440147;1251;140256;-69
2023/11/30 22:18:09;;;;;;;160.70;126.30;;;;;;;-4.11;100.00;98156.41;435777;1253;140262;-69
2023/11/30 22:28:16;;;;;;;165.60;126.90;;;;;;;-4.41;100.00;98159.11;435590;1251;141129;-70
2023/11/30 22:38:23;;;;;;;161.40;125.30;;;;;;;-4.63;100.00;98157.09;435581;1254;140425;-70
2023/11/30 22:48:29;;;;;;;162.60;122.60;;;;;;;-4.69;100.00;98155.89;439180;1253;141071;-69
2023/11/30 22:58:35;;;;;;;151.80;116.20;;;;;;;-4.71;100.00;98148.77;440494;1253;140577;-69
2023/11/30 23:08:43;;;;;;;164.10;124.40;;;;;;;-4.66;100.00;98141.47;438456;1250;140107;-69
2023/11/30 23:18:49;;;;;;;167.90;126.60;;;;;;;-4.68;100.00;98142.88;435292;1252;140280;-69
2023/11/30 23:28:55;;;;;;;169.20;129.40;;;;;;;-4.86;100.00;98155.77;435611;1253;141061;-68
2023/11/30 23:39:04;;;;;;;201.60;146.50;;;;;;;-5.12;100.00;98161.34;452984;1248;140779;-69
2023/11/30 23:49:10;;;;;;;198.10;145.30;;;;;;;-5.27;100.00;98148.04;437682;1250;140906;-69
2023/11/30 23:59:16;;;;;;;177.50;129.10;;;;;;;-5.45;100.00;98137.52;441235;1253;185920;-69
